Time;durP1;ratioP1;P1;durP2;ratioP2;P2;SDS_P1;SDS_P2;PMS_P1;PMS_P2;Temp;Humidity;BMP_temperature;BMP_pressure;BME280_temperature;BME280_humidity;BME280_pressure;Samples;Min_cycle;Max_cycle;Signal;HPM_P1;HPM_P2
2020/12/16 00:02:02;;;;;;;62.83;25.43;;;8.50;94.30;;;;;;5073522;28;20036;-81
2020/12/16 00:04:27;;;;;;;61.67;25.17;;;8.50;94.30;;;;;;5040036;28;20391;-81
2020/12/16 00:06:53;;;;;;;54.83;25.67;;;8.50;94.30;;;;;;5056699;28;20452;-81
2020/12/16 00:09:18;;;;;;;60.97;26.03;;;8.60;94.30;;;;;;5056750;28;20038;-82
2020/12/16 00:11:44;;;;;;;55.80;25.57;;;8.50;94.30;;;;;;5039976;28;20074;-76
2020/12/16 00:14:09;;;;;;;67.83;27.73;;;8.60;94.30;;;;;;5056835;28;20024;-76
2020/12/16 00:16:35;;;;;;;76.47;25.63;;;8.60;94.30;;;;;;5072873;28;20380;-77
2020/12/16 00:19:01;;;;;;;52.50;25.53;;;8.50;94.20;;;;;;5039873;28;20192;-77
2020/12/16 00:21:26;;;;;;;65.57;26.03;;;8.60;94.20;;;;;;5072971;28;20030;-77
2020/12/16 00:23:52;;;;;;;61.57;27.87;;;8.60;94.20;;;;;;5072988;28;20021;-76
2020/12/16 00:26:18;;;;;;;52.20;26.07;;;8.60;94.20;;;;;;5074159;28;20024;-76
2020/12/16 00:28:44;;;;;;;66.60;25.87;;;8.50;94.10;;;;;;5055673;28;20484;-76
2020/12/16 00:31:12;;;;;;;57.93;27.63;;;8.50;94.10;;;;;;5055992;28;20024;-76
2020/12/16 00:33:37;;;;;;;66.83;26.07;;;8.50;94.10;;;;;;5073913;28;20032;-76
2020/12/16 00:36:03;;;;;;;59.87;26.23;;;8.50;94.20;;;;;;5039471;28;20035;-76
2020/12/16 00:38:28;;;;;;;71.67;26.40;;;8.50;94.20;;;;;;5072847;28;20446;-76
2020/12/16 00:40:54;;;;;;;54.40;26.23;;;8.50;94.20;;;;;;5039455;28;20107;-76
2020/12/16 00:43:20;;;;;;;62.57;26.33;;;8.50;94.20;;;;;;5072722;28;20408;-76
2020/12/16 00:45:45;;;;;;;72.40;27.60;;;8.50;94.30;;;;;;5039345;28;20029;-76
2020/12/16 00:48:11;;;;;;;71.90;26.03;;;8.50;94.30;;;;;;5055903;28;20480;-76
2020/12/16 00:50:37;;;;;;;78.13;26.27;;;8.50;94.30;;;;;;5073723;28;20029;-76
2020/12/16 00:53:02;;;;;;;67.27;26.57;;;8.50;94.30;;;;;;5055806;28;20059;-76
2020/12/16 00:55:28;;;;;;;58.00;25.27;;;8.50;94.30;;;;;;5055738;28;20029;-76
2020/12/16 00:57:58;;;;;;;61.10;24.43;;;8.60;94.30;;;;;;5055904;28;20035;-76
2020/12/16 01:00:23;;;;;;;74.10;28.37;;;8.50;94.30;;;;;;5072094;28;20053;-76
2020/12/16 01:02:50;;;;;;;74.37;28.13;;;8.60;94.30;;;;;;5039144;28;20086;-76
2020/12/16 01:05:17;;;;;;;62.70;26.73;;;8.60;94.30;;;;;;5055767;28;20035;-76
2020/12/16 01:07:43;;;;;;;57.73;26.70;;;8.60;94.30;;;;;;5073468;28;20032;-76
2020/12/16 01:10:15;;;;;;;78.60;27.80;;;8.60;94.30;;;;;;5072475;28;20025;-76
2020/12/16 01:12:45;;;;;;;53.63;27.60;;;8.60;94.30;;;;;;5073509;28;20021;-76
2020/12/16 01:15:17;;;;;;;57.83;27.07;;;8.60;94.20;;;;;;5073376;28;20549;-76
2020/12/16 01:17:44;;;;;;;56.07;29.00;;;8.60;94.20;;;;;;5055400;28;20093;-76
2020/12/16 01:20:11;;;;;;;55.63;27.37;;;8.60;94.20;;;;;;5055599;28;20021;-76
2020/12/16 01:22:45;;;;;;;59.47;28.37;;;8.70;94.20;;;;;;5073403;28;20035;-77
2020/12/16 01:25:11;;;;;;;;;;;8.60;94.20;;;;;;5072469;28;20062;-77
2020/12/16 01:27:37;;;;;;;50.67;25.17;;;8.60;94.20;;;;;;5071871;28;19927;-75
2020/12/16 01:30:09;;;;;;;66.63;25.87;;;8.60;94.10;;;;;;5072031;28;20365;-76
2020/12/16 01:32:36;;;;;;;54.23;26.30;;;8.70;94.10;;;;;;5071998;28;20424;-76
2020/12/16 01:35:04;;;;;;;57.97;25.87;;;8.60;94.10;;;;;;5055059;28;20503;-77
2020/12/16 01:37:30;;;;;;;70.13;26.70;;;8.60;94.10;;;;;;5072195;28;20021;-76
2020/12/16 01:39:55;;;;;;;60.00;26.37;;;8.60;94.10;;;;;;5076460;28;20495;-76
2020/12/16 01:42:21;;;;;;;59.70;24.93;;;8.70;94.10;;;;;;5059450;28;20039;-76
2020/12/16 01:44:47;;;;;;;64.50;26.60;;;8.60;94.10;;;;;;5059356;28;20051;-76
2020/12/16 01:47:12;;;;;;;66.73;26.27;;;8.60;94.10;;;;;;5075967;28;20372;-76
2020/12/16 01:49:38;;;;;;;65.63;25.50;;;8.60;94.10;;;;;;5042627;28;20111;-76
2020/12/16 01:52:06;;;;;;;69.27;25.07;;;8.50;94.00;;;;;;5042713;28;20052;-76
2020/12/16 01:54:36;;;;;;;83.57;25.90;;;8.60;94.00;;;;;;5077139;28;20021;-76
2020/12/16 01:57:04;;;;;;;63.40;24.37;;;8.70;94.00;;;;;;5075655;28;20484;-76
2020/12/16 01:59:35;;;;;;;69.33;25.50;;;8.60;94.00;;;;;;5058971;28;20044;-82
2020/12/16 02:02:02;;;;;;;60.37;26.60;;;8.50;94.00;;;;;;5077034;28;20043;-81
2020/12/16 02:04:33;;;;;;;71.00;25.63;;;8.60;94.00;;;;;;5059054;28;20028;-82
2020/12/16 02:07:01;;;;;;;78.90;25.00;;;8.60;94.30;;;;;;5075621;28;20039;-82
2020/12/16 02:09:26;;;;;;;87.80;25.70;;;8.70;94.00;;;;;;5059761;28;20028;-81
2020/12/16 02:11:52;;;;;;;82.27;26.13;;;8.50;94.00;;;;;;5075607;28;20059;-82
2020/12/16 02:14:18;;;;;;;89.43;25.93;;;8.50;94.00;;;;;;5075410;28;20491;-81
2020/12/16 02:16:43;;;;;;;66.00;24.47;;;8.50;94.00;;;;;;5076633;28;20040;-81
2020/12/16 02:19:10;;;;;;;73.73;24.87;;;8.50;94.00;;;;;;5075477;28;20533;-81
2020/12/16 02:21:37;;;;;;;72.43;26.27;;;8.60;94.00;;;;;;5075379;28;20425;-81
2020/12/16 02:24:08;;;;;;;68.53;25.63;;;8.50;94.00;;;;;;5075263;28;20464;-81
2020/12/16 02:26:36;;;;;;;76.07;24.57;;;8.50;93.90;;;;;;5076569;28;20028;-82
2020/12/16 02:29:03;;;;;;;67.60;25.20;;;8.50;93.90;;;;;;5075164;28;20028;-81
2020/12/16 02:31:31;;;;;;;60.90;24.00;;;8.40;93.90;;;;;;5076409;28;20472;-81
2020/12/16 02:33:57;;;;;;;68.10;25.73;;;8.40;93.90;;;;;;5074951;28;20365;-81
2020/12/16 02:36:22;;;;;;;71.20;24.63;;;8.40;93.90;;;;;;5058334;28;20078;-81
2020/12/16 02:38:49;;;;;;;128.40;26.57;;;8.40;93.90;;;;;;5075030;28;20063;-81
2020/12/16 02:41:15;;;;;;;47.00;24.87;;;8.40;94.00;;;;;;5076105;28;20021;-81
2020/12/16 02:43:40;;;;;;;73.63;25.17;;;8.40;94.00;;;;;;5075277;28;20035;-81
2020/12/16 02:46:06;;;;;;;99.37;25.27;;;8.30;94.00;;;;;;5076288;28;20112;-81
2020/12/16 02:48:32;;;;;;;69.57;25.93;;;8.30;94.00;;;;;;5074857;28;20028;-81
2020/12/16 02:50:57;;;;;;;66.23;26.00;;;8.30;94.00;;;;;;5040881;28;20452;-82
2020/12/16 02:53:23;;;;;;;57.33;26.20;;;8.30;94.00;;;;;;5074980;28;20059;-81
2020/12/16 02:55:48;;;;;;;66.10;24.97;;;8.30;94.00;;;;;;5041558;28;20037;-81
2020/12/16 02:58:14;;;;;;;57.67;25.90;;;8.30;94.00;;;;;;5058190;28;20032;-82
2020/12/16 03:00:39;;;;;;;62.63;25.57;;;8.30;94.20;;;;;;5057791;28;20048;-82
2020/12/16 03:03:05;;;;;;;61.07;23.53;;;8.30;93.90;;;;;;5074637;28;20036;-81
2020/12/16 03:05:31;;;;;;;66.27;24.17;;;8.30;93.80;;;;;;5057793;28;20031;-82
2020/12/16 03:07:56;;;;;;;64.40;24.70;;;8.20;93.80;;;;;;5057979;28;20040;-82
2020/12/16 03:10:22;;;;;;;72.43;25.17;;;8.40;93.80;;;;;;5057843;28;20044;-82
2020/12/16 03:12:47;;;;;;;71.67;23.43;;;8.20;93.80;;;;;;5041151;28;20052;-76
2020/12/16 03:15:13;;;;;;;62.30;22.67;;;8.20;93.60;;;;;;5041062;28;20468;-76
2020/12/16 03:17:39;;;;;;;45.03;21.47;;;8.10;93.60;;;;;;5057549;28;20020;-76
2020/12/16 03:20:04;;;;;;;52.93;22.70;;;8.10;93.50;;;;;;5057520;28;20533;-76
2020/12/16 03:22:30;;;;;;;40.07;21.23;;;8.00;93.60;;;;;;5074382;28;20104;-81
2020/12/16 03:24:55;;;;;;;52.53;20.47;;;8.10;93.60;;;;;;5074256;28;20386;-82
2020/12/16 03:27:21;;;;;;;51.87;20.63;;;8.00;93.60;;;;;;5057560;28;20078;-81
2020/12/16 03:29:47;;;;;;;35.97;19.10;;;8.00;93.60;;;;;;5075418;28;20036;-82
2020/12/16 03:32:13;;;;;;;49.50;21.60;;;7.90;93.60;;;;;;5073992;28;20484;-82
2020/12/16 03:34:39;;;;;;;50.20;19.53;;;7.90;93.70;;;;;;5074019;28;20071;-81
2020/12/16 03:37:04;;;;;;;49.00;20.67;;;7.90;93.70;;;;;;5073918;28;20037;-81
2020/12/16 03:39:30;;;;;;;32.13;16.90;;;7.90;93.70;;;;;;5074012;28;20032;-81
2020/12/16 03:41:56;;;;;;;37.50;19.53;;;7.90;93.70;;;;;;5075452;28;20033;-76
2020/12/16 03:44:22;;;;;;;44.07;18.27;;;7.90;93.70;;;;;;5074048;28;20081;-76
2020/12/16 03:46:54;;;;;;;35.47;18.47;;;7.90;93.70;;;;;;5057303;28;20025;-76
2020/12/16 03:49:19;;;;;;;54.00;18.33;;;7.80;93.70;;;;;;5073729;28;20021;-76
2020/12/16 03:51:50;;;;;;;33.83;18.47;;;7.80;93.70;;;;;;5056945;28;20499;-76
2020/12/16 03:54:16;;;;;;;40.30;18.77;;;7.80;93.70;;;;;;5073511;28;20098;-76
2020/12/16 03:56:41;;;;;;;58.93;19.57;;;7.80;93.80;;;;;;5040204;28;20036;-76
2020/12/16 03:59:07;;;;;;;51.97;19.77;;;7.80;93.70;;;;;;5056660;28;20060;-76
2020/12/16 04:01:32;;;;;;;48.20;19.87;;;7.80;93.70;;;;;;5073027;28;20111;-76
2020/12/16 04:03:58;;;;;;;44.03;17.20;;;7.80;93.70;;;;;;5056115;28;20120;-76
2020/12/16 04:06:24;;;;;;;76.73;18.43;;;7.80;93.80;;;;;;5073286;28;20517;-76
2020/12/16 04:08:49;;;;;;;61.97;19.80;;;7.80;94.10;;;;;;5056831;28;20044;-76
2020/12/16 04:11:17;;;;;;;47.70;18.60;;;7.80;93.80;;;;;;5073468;28;20036;-76
2020/12/16 04:13:43;;;;;;;43.20;19.10;;;7.80;93.90;;;;;;5074501;28;20040;-76
2020/12/16 04:16:13;;;;;;;51.10;18.37;;;7.80;93.90;;;;;;5074344;28;20040;-76
2020/12/16 04:18:39;;;;;;;57.03;19.70;;;7.80;93.90;;;;;;5073089;28;20021;-76
2020/12/16 04:21:06;;;;;;;54.20;17.90;;;7.80;93.90;;;;;;5074306;28;20533;-76
2020/12/16 04:23:32;;;;;;;54.07;19.20;;;7.80;94.00;;;;;;5073255;28;20081;-76
2020/12/16 04:25:58;;;;;;;52.63;20.60;;;7.80;94.00;;;;;;5073116;28;20396;-76
2020/12/16 04:28:23;;;;;;;58.33;19.90;;;7.80;94.00;;;;;;5039735;28;20036;-76
2020/12/16 04:30:49;;;;;;;48.73;20.70;;;7.80;94.00;;;;;;5072713;28;20039;-76
2020/12/16 04:33:15;;;;;;;62.03;21.30;;;7.80;94.00;;;;;;5073998;28;20031;-76
2020/12/16 04:35:40;;;;;;;39.33;20.30;;;7.80;94.00;;;;;;5055999;28;20032;-76
2020/12/16 04:38:06;;;;;;;62.80;20.73;;;7.80;94.00;;;;;;5039535;28;20035;-75
2020/12/16 04:40:32;;;;;;;45.53;19.77;;;7.70;93.90;;;;;;5056028;28;20034;-75
2020/12/16 04:43:00;;;;;;;56.53;20.47;;;7.80;93.90;;;;;;5072672;28;20032;-76
2020/12/16 04:45:26;;;;;;;46.13;20.60;;;7.80;93.90;;;;;;5072536;28;20162;-76
2020/12/16 04:47:52;;;;;;;50.37;21.73;;;7.80;93.90;;;;;;5056081;28;20127;-76
2020/12/16 04:50:18;;;;;;;62.37;20.97;;;7.80;93.90;;;;;;5055941;28;20028;-76
2020/12/16 04:52:48;;;;;;;45.80;20.13;;;7.80;93.90;;;;;;5072457;28;20541;-76
2020/12/16 04:55:17;;;;;;;57.90;20.77;;;7.80;93.90;;;;;;5072668;28;20039;-76
2020/12/16 04:57:48;;;;;;;55.30;21.83;;;7.80;93.90;;;;;;5072530;28;20031;-76
2020/12/16 05:00:14;;;;;;;57.93;24.37;;;7.80;93.90;;;;;;5071306;28;20052;-75
2020/12/16 05:02:46;;;;;;;64.77;22.00;;;7.70;93.90;;;;;;5054749;28;20035;-77
2020/12/16 05:05:12;;;;;;;65.33;22.20;;;7.70;93.90;;;;;;5073408;28;20032;-76
2020/12/16 05:07:38;;;;;;;47.63;23.50;;;7.70;93.90;;;;;;5071939;28;20025;-76
2020/12/16 05:10:03;;;;;;;39.00;22.70;;;7.70;93.90;;;;;;5039221;28;20032;-76
2020/12/16 05:12:29;;;;;;;41.97;22.70;;;7.80;93.90;;;;;;5072333;28;20154;-76
2020/12/16 05:14:54;;;;;;;35.73;22.20;;;7.70;93.90;;;;;;5038975;28;20489;-75
2020/12/16 05:17:20;;;;;;;35.30;21.70;;;7.70;93.90;;;;;;5038813;28;20033;-76
2020/12/16 05:19:45;;;;;;;34.97;23.33;;;7.70;93.80;;;;;;5055489;28;20469;-80
2020/12/16 05:22:16;;;;;;;38.93;24.17;;;7.70;93.80;;;;;;5073405;28;20032;-81
2020/12/16 05:24:43;;;;;;;35.00;22.33;;;7.70;93.70;;;;;;5072046;28;20062;-81
2020/12/16 05:27:15;;;;;;;40.23;23.63;;;7.70;93.70;;;;;;5072273;28;20040;-81
2020/12/16 05:29:41;;;;;;;39.27;23.53;;;7.70;93.60;;;;;;5073387;28;20101;-76
2020/12/16 05:32:20;;;;;;;37.57;21.63;;;7.60;93.60;;;;;;5072070;28;20035;-75
2020/12/16 05:34:46;;;;;;;43.87;24.70;;;7.60;93.60;;;;;;5072017;28;20395;-76
2020/12/16 05:37:38;;;;;;;36.67;22.10;;;7.50;93.60;;;;;;5071748;28;20028;-76
2020/12/16 05:40:11;;;;;;;32.53;21.23;;;7.50;93.50;;;;;;5072327;28;20025;-76
2020/12/16 05:42:37;;;;;;;39.07;22.70;;;7.50;93.50;;;;;;5072974;28;20017;-82
2020/12/16 05:45:12;;;;;;;31.30;19.80;;;7.40;93.40;;;;;;5071991;28;20424;-81
2020/12/16 05:47:42;;;;;;;36.03;21.37;;;7.40;93.40;;;;;;5071965;28;20162;-81
2020/12/16 05:50:18;;;;;;;31.97;20.47;;;7.40;93.40;;;;;;5071848;28;20073;-81
2020/12/16 05:52:45;;;;;;;32.13;19.50;;;7.30;93.40;;;;;;5071858;28;20460;-81
2020/12/16 05:55:11;;;;;;;33.50;20.50;;;7.30;93.30;;;;;;5071644;28;20077;-80
2020/12/16 05:57:37;;;;;;;35.93;20.77;;;7.20;93.30;;;;;;5071840;28;20037;-81
2020/12/16 06:00:11;;;;;;;35.63;21.23;;;7.10;93.40;;;;;;5055375;28;20051;-81
2020/12/16 06:02:44;;;;;;;32.83;20.65;;;7.10;93.30;;;;;;5055174;28;20025;-81
2020/12/16 06:05:12;;;;;;;37.05;20.63;;;7.00;93.20;;;;;;5072845;28;20021;-80
2020/12/16 06:07:39;;;;;;;36.17;19.47;;;7.00;93.30;;;;;;5072933;28;20033;-81
2020/12/16 06:10:07;;;;;;;32.43;19.90;;;6.90;93.30;;;;;;5072888;28;20086;-76
2020/12/16 06:12:37;;;;;;;35.60;21.47;;;6.90;93.30;;;;;;5067888;28;20063;-76
2020/12/16 06:15:09;;;;;;;32.10;19.83;;;6.90;93.40;;;;;;5066873;28;20036;-76
2020/12/16 06:18:00;;;;;;;33.87;20.47;;;6.90;93.30;;;;;;5057142;28;20017;-76
2020/12/16 06:20:32;;;;;;;35.20;18.77;;;6.80;93.30;;;;;;5071495;28;20038;-76
2020/12/16 06:23:01;;;;;;;31.80;20.17;;;6.80;93.40;;;;;;5070554;28;20020;-76
2020/12/16 06:25:27;;;;;;;32.67;20.30;;;6.80;93.40;;;;;;5055165;28;20103;-76
2020/12/16 06:27:53;;;;;;;34.47;21.10;;;6.70;93.40;;;;;;5039413;28;20020;-76
2020/12/16 06:30:30;;;;;;;36.27;20.50;;;6.70;93.40;;;;;;5059030;28;20078;-76
2020/12/16 06:33:09;;;;;;;33.37;20.13;;;6.70;93.40;;;;;;5067024;28;20024;-76
2020/12/16 06:35:38;;;;;;;33.90;20.00;;;6.70;93.40;;;;;;5076140;28;20028;-75
2020/12/16 06:38:20;;;;;;;34.57;19.90;;;6.70;93.50;;;;;;5074905;28;20012;-76
2020/12/16 06:40:48;;;;;;;33.83;19.77;;;6.60;93.50;;;;;;5076589;28;20032;-76
2020/12/16 06:43:32;;;;;;;31.70;19.57;;;6.60;93.50;;;;;;5068204;28;20534;-76
2020/12/16 06:46:02;;;;;;;33.58;20.52;;;6.60;93.50;;;;;;5056227;28;20025;-82
2020/12/16 06:48:41;;;;;;;29.03;18.50;;;6.50;93.50;;;;;;5063328;28;20103;-81
2020/12/16 06:51:25;;;;;;;33.63;19.40;;;6.50;93.50;;;;;;5063314;28;20028;-81
2020/12/16 06:54:10;;;;;;;30.70;19.37;;;6.40;93.50;;;;;;5072843;28;20154;-81
2020/12/16 06:56:37;;;;;;;30.33;18.57;;;6.40;93.50;;;;;;5065375;28;20064;-82
2020/12/16 06:59:03;;;;;;;31.37;19.60;;;6.30;93.50;;;;;;5025716;28;20120;-81
2020/12/16 07:01:29;;;;;;;30.67;19.37;;;6.30;93.60;;;;;;5060771;28;20029;-81
2020/12/16 07:03:54;;;;;;;35.23;19.90;;;6.30;93.60;;;;;;5069938;28;20023;-81
2020/12/16 07:06:29;;;;;;;34.73;20.23;;;6.20;93.60;;;;;;5071350;28;20083;-81
2020/12/16 07:09:18;;;;;;;30.20;18.47;;;6.30;93.60;;;;;;5054529;28;20436;-81
2020/12/16 07:11:46;;;;;;;29.90;18.80;;;6.20;93.60;;;;;;5056090;28;20493;-81
2020/12/16 07:14:17;;;;;;;28.97;18.30;;;6.20;93.60;;;;;;5052160;28;20028;-82
2020/12/16 07:16:43;;;;;;;29.70;17.97;;;6.10;93.60;;;;;;5063893;28;20052;-81
2020/12/16 07:19:10;;;;;;;31.80;18.33;;;6.10;93.60;;;;;;5064173;28;20029;-82
2020/12/16 07:21:38;;;;;;;33.07;18.97;;;6.10;93.70;;;;;;5076980;28;20361;-83
2020/12/16 07:24:13;;;;;;;31.73;19.60;;;6.10;93.70;;;;;;5060240;28;20024;-82
2020/12/16 07:26:50;;;;;;;31.97;19.67;;;6.10;93.70;;;;;;5059598;28;20033;-83
2020/12/16 07:29:35;;;;;;;32.37;19.50;;;6.10;93.80;;;;;;5047400;28;20029;-82
2020/12/16 07:32:05;;;;;;;32.37;19.53;;;6.10;93.80;;;;;;5068106;28;20066;-76
2020/12/16 07:34:47;;;;;;;31.30;18.40;;;6.10;93.80;;;;;;5062326;28;20036;-75
2020/12/16 07:37:15;;;;;;;31.97;18.37;;;6.10;93.80;;;;;;5056465;28;20024;-76
2020/12/16 07:39:51;;;;;;;28.50;18.33;;;6.10;93.80;;;;;;5069987;28;20082;-74
2020/12/16 07:42:25;;;;;;;30.53;18.43;;;6.00;93.80;;;;;;5058986;28;20031;-75
2020/12/16 07:44:50;;;;;;;26.40;17.70;;;6.10;93.80;;;;;;5070901;28;20039;-75
2020/12/16 07:47:18;;;;;;;28.50;16.50;;;6.10;93.80;;;;;;5058930;28;20066;-75
2020/12/16 07:49:44;;;;;;;26.23;17.43;;;6.10;93.80;;;;;;5056912;28;20028;-75
2020/12/16 07:52:11;;;;;;;29.53;18.37;;;6.10;93.90;;;;;;5053724;28;20029;-75
2020/12/16 07:54:37;;;;;;;31.83;19.37;;;6.10;93.90;;;;;;5065862;28;20032;-75
2020/12/16 07:57:03;;;;;;;28.40;18.10;;;6.10;93.90;;;;;;5075397;28;20119;-75
2020/12/16 07:59:34;;;;;;;27.43;18.07;;;6.10;93.90;;;;;;5069979;28;20131;-75
2020/12/16 08:02:10;;;;;;;25.07;16.40;;;6.10;93.90;;;;;;5070787;28;20103;-75
2020/12/16 08:04:37;;;;;;;24.83;16.10;;;6.10;93.90;;;;;;5066282;28;20048;-76
2020/12/16 08:07:10;;;;;;;28.17;16.97;;;6.20;93.90;;;;;;5074036;28;20063;-74
2020/12/16 08:09:36;;;;;;;26.23;16.43;;;6.10;93.90;;;;;;5059081;28;20032;-74
2020/12/16 08:12:01;;;;;;;29.07;17.30;;;6.20;94.00;;;;;;5041444;28;20037;-74
2020/12/16 08:14:27;;;;;;;26.30;16.97;;;6.10;94.00;;;;;;5051804;28;20028;-74
2020/12/16 08:16:52;;;;;;;29.03;17.37;;;6.20;94.10;;;;;;5066778;28;20037;-74
2020/12/16 08:19:18;;;;;;;25.93;16.97;;;6.20;94.10;;;;;;5070514;28;20032;-75
2020/12/16 08:21:49;;;;;;;29.60;16.77;;;6.20;94.10;;;;;;5068216;28;20365;-75
2020/12/16 08:24:14;;;;;;;25.57;16.50;;;6.20;94.10;;;;;;5029406;28;20021;-74
2020/12/16 08:26:40;;;;;;;27.47;16.73;;;6.20;94.10;;;;;;5069529;28;20878;-75
2020/12/16 08:29:06;;;;;;;24.57;15.87;;;6.20;94.10;;;;;;5058414;28;20052;-75
2020/12/16 08:31:34;;;;;;;24.60;15.73;;;6.20;94.20;;;;;;5062604;28;20121;-75
2020/12/16 08:34:01;;;;;;;28.67;15.60;;;6.30;94.20;;;;;;5072626;28;20028;-75
2020/12/16 08:36:27;;;;;;;24.33;16.50;;;6.30;94.20;;;;;;5047368;28;20540;-75
2020/12/16 08:38:54;;;;;;;30.23;16.80;;;6.30;94.50;;;;;;5071271;28;20116;-75
2020/12/16 08:41:43;;;;;;;24.33;16.43;;;6.30;94.30;;;;;;5052648;28;20033;-75
2020/12/16 08:44:19;;;;;;;24.20;15.60;;;6.40;94.30;;;;;;5044840;28;20025;-75
2020/12/16 08:46:45;;;;;;;24.23;15.43;;;6.40;94.40;;;;;;5050057;28;20123;-75
2020/12/16 08:49:10;;;;;;;28.73;17.10;;;6.40;94.40;;;;;;5042971;28;20808;-76
2020/12/16 08:51:44;;;;;;;24.43;16.17;;;6.40;94.40;;;;;;5069742;28;20040;-76
2020/12/16 08:54:12;;;;;;;25.58;16.75;;;6.50;94.50;;;;;;5051589;28;20033;-75
2020/12/16 08:56:42;;;;;;;24.57;16.47;;;6.50;94.50;;;;;;5052622;28;20083;-76
2020/12/16 08:59:27;;;;;;;27.70;16.20;;;6.50;94.60;;;;;;5068307;28;20047;-76
2020/12/16 09:02:02;;;;;;;21.40;14.93;;;6.60;94.70;;;;;;5062331;28;20029;-75
2020/12/16 09:04:36;;;;;;;23.53;14.67;;;6.60;94.70;;;;;;5053162;28;20029;-77
2020/12/16 09:07:06;;;;;;;20.60;13.67;;;6.70;94.80;;;;;;5067598;28;20387;-75
2020/12/16 09:09:34;;;;;;;21.23;14.23;;;6.70;94.70;;;;;;5062364;28;20120;-74
2020/12/16 09:12:01;;;;;;;24.90;14.83;;;6.80;94.70;;;;;;5040474;28;20020;-75
2020/12/16 09:14:27;;;;;;;20.57;14.27;;;6.80;94.70;;;;;;5065725;28;20166;-75
2020/12/16 09:16:53;;;;;;;20.90;13.47;;;6.80;94.60;;;;;;5025888;28;20484;-75
2020/12/16 09:19:24;;;;;;;18.43;13.23;;;6.80;94.60;;;;;;5064691;28;20020;-75
2020/12/16 09:21:51;;;;;;;20.33;13.20;;;6.80;94.70;;;;;;5093035;28;20028;-75
2020/12/16 09:24:23;;;;;;;19.20;13.27;;;6.90;94.80;;;;;;5080390;28;20012;-74
2020/12/16 09:26:51;;;;;;;20.17;12.73;;;7.00;94.90;;;;;;5052878;28;20022;-74
2020/12/16 09:29:28;;;;;;;20.47;13.23;;;7.10;95.00;;;;;;5047425;28;20388;-74
2020/12/16 09:32:20;;;;;;;17.50;12.70;;;7.30;95.20;;;;;;5035718;28;20021;-74
2020/12/16 09:34:50;;;;;;;12.50;8.87;;;7.70;95.50;;;;;;5068476;28;20480;-75
2020/12/16 09:37:33;;;;;;;11.60;7.97;;;8.10;95.90;;;;;;5034045;28;20071;-74
2020/12/16 09:40:15;;;;;;;9.73;6.37;;;8.60;96.50;;;;;;5068393;28;20049;-75
2020/12/16 09:42:56;;;;;;;11.07;5.43;;;9.20;97.00;;;;;;5071749;28;20108;-75
2020/12/16 09:45:22;;;;;;;8.00;4.50;;;9.90;97.30;;;;;;5071877;28;20017;-75
2020/12/16 09:47:53;;;;;;;9.45;4.38;;;10.50;97.30;;;;;;5052278;28;20025;-74
2020/12/16 09:50:30;;;;;;;9.32;4.35;;;11.10;97.20;;;;;;5061947;28;20380;-75
2020/12/16 09:53:04;;;;;;;5.93;4.00;;;11.80;96.90;;;;;;5052841;28;20021;-75
2020/12/16 09:55:35;;;;;;;7.82;3.90;;;12.40;96.60;;;;;;5064897;28;20346;-84
2020/12/16 09:58:05;;;;;;;6.45;4.15;;;12.90;96.20;;;;;;5054265;28;20020;-84
2020/12/16 10:00:36;;;;;;;6.40;3.67;;;13.40;95.90;;;;;;5071019;28;20128;-84
2020/12/16 10:03:06;;;;;;;4.65;3.17;;;13.90;95.50;;;;;;5076781;28;20029;-84
2020/12/16 10:05:33;;;;;;;7.72;3.17;;;14.50;94.90;;;;;;5075524;28;20030;-84
2020/12/16 10:07:58;;;;;;;5.95;3.40;;;15.00;94.30;;;;;;5069513;28;20017;-85
2020/12/16 10:10:27;;;;;;;5.68;3.17;;;15.40;93.60;;;;;;5062972;28;20059;-84
2020/12/16 10:12:53;;;;;;;7.65;4.22;;;15.80;93.00;;;;;;5075809;28;20013;-85
2020/12/16 10:15:19;;;;;;;6.18;3.67;;;15.90;91.90;;;;;;5059023;28;20024;-85
2020/12/16 10:17:45;;;;;;;7.30;4.25;;;15.70;89.50;;;;;;5071901;28;20025;-85
2020/12/16 10:20:11;;;;;;;6.20;4.50;;;15.40;87.20;;;;;;5064868;28;20009;-84
2020/12/16 10:22:37;;;;;;;6.72;4.25;;;15.00;85.40;;;;;;5041508;28;20089;-84
2020/12/16 10:25:04;;;;;;;8.52;4.85;;;14.80;84.50;;;;;;5076357;28;20024;-85
2020/12/16 10:27:32;;;;;;;6.65;4.10;;;14.60;84.00;;;;;;5022497;28;20033;-84
2020/12/16 10:30:01;;;;;;;7.85;3.97;;;14.60;84.10;;;;;;5070656;28;20029;-85
2020/12/16 10:32:27;;;;;;;6.25;3.72;;;14.60;83.50;;;;;;5075546;28;20033;-84
2020/12/16 10:34:53;;;;;;;6.47;3.70;;;14.80;83.50;;;;;;5075094;28;20514;-82
2020/12/16 10:37:23;;;;;;;5.13;3.28;;;15.00;83.30;;;;;;5076060;28;20025;-86
2020/12/16 10:39:50;;;;;;;7.57;3.80;;;15.10;82.80;;;;;;5063062;28;20013;-85
2020/12/16 10:42:16;;;;;;;8.70;3.75;;;15.40;82.10;;;;;;5074974;28;20028;-85
2020/12/16 10:44:41;;;;;;;6.00;3.45;;;15.50;81.30;;;;;;5074834;28;20395;-84
2020/12/16 10:47:08;;;;;;;7.65;3.55;;;15.90;80.50;;;;;;5076242;28;20032;-84
2020/12/16 10:49:34;;;;;;;8.30;3.25;;;16.20;79.90;;;;;;5057822;28;20047;-85
2020/12/16 10:52:05;;;;;;;5.25;2.45;;;16.70;79.30;;;;;;5054191;28;20108;-84
2020/12/16 10:54:31;;;;;;;5.93;2.97;;;17.20;77.80;;;;;;5075913;28;20031;-84
2020/12/16 10:56:58;;;;;;;6.22;3.20;;;17.60;77.00;;;;;;5074397;28;20115;-83
2020/12/16 10:59:23;;;;;;;6.13;3.08;;;18.00;75.70;;;;;;5075487;28;20039;-83
2020/12/16 11:01:50;;;;;;;7.10;3.17;;;18.30;73.60;;;;;;5064482;28;20025;-83
2020/12/16 11:04:15;;;;;;;5.45;2.70;;;18.50;72.60;;;;;;5038122;28;20028;-83
2020/12/16 11:06:47;;;;;;;5.45;2.60;;;18.70;71.60;;;;;;5055693;28;20033;-85
2020/12/16 11:09:15;;;;;;;6.70;3.35;;;18.90;70.40;;;;;;5067125;28;20036;-83
2020/12/16 11:11:46;;;;;;;6.82;3.45;;;19.00;70.00;;;;;;5053554;28;20033;-83
2020/12/16 11:14:12;;;;;;;7.72;2.70;;;19.10;69.00;;;;;;5051831;28;20033;-83
2020/12/16 11:16:38;;;;;;;5.82;2.67;;;19.10;68.00;;;;;;5053985;28;20167;-84
2020/12/16 11:19:04;;;;;;;5.13;2.95;;;19.30;67.30;;;;;;5067993;28;20494;-83
2020/12/16 11:21:40;;;;;;;8.32;3.05;;;19.30;66.20;;;;;;5074104;28;20096;-84
2020/12/16 11:24:08;;;;;;;6.57;2.60;;;19.30;65.20;;;;;;5067369;28;20025;-84
2020/12/16 11:26:38;;;;;;;7.15;2.95;;;19.30;62.30;;;;;;5061849;28;20063;-86
2020/12/16 11:29:04;;;;;;;5.60;2.83;;;19.20;61.10;;;;;;5069488;28;20119;-85
2020/12/16 11:31:30;;;;;;;6.07;3.10;;;19.10;59.30;;;;;;5057676;28;21137;-84
2020/12/16 11:33:56;;;;;;;6.35;3.35;;;18.80;58.60;;;;;;5040571;28;20063;-83
2020/12/16 11:36:21;;;;;;;4.90;2.90;;;18.60;59.10;;;;;;5040594;28;20123;-83
2020/12/16 11:38:47;;;;;;;4.70;2.83;;;18.40;59.40;;;;;;5072445;28;20024;-83
2020/12/16 11:41:12;;;;;;;6.38;3.75;;;18.30;59.90;;;;;;5033075;28;20021;-83
2020/12/16 11:43:38;;;;;;;8.02;3.72;;;18.20;59.90;;;;;;5057357;28;20035;-82
2020/12/16 11:46:04;;;;;;;10.55;4.10;;;18.00;59.80;;;;;;5040078;28;20040;-83
2020/12/16 11:48:29;;;;;;;6.25;3.70;;;17.80;59.30;;;;;;5056993;28;20073;-82
2020/12/16 11:50:55;;;;;;;7.22;4.15;;;17.60;59.60;;;;;;5053515;28;20021;-83
2020/12/16 11:53:20;;;;;;;9.00;4.80;;;17.10;59.70;;;;;;5054745;28;20112;-84
2020/12/16 11:55:47;;;;;;;7.03;4.30;;;16.80;60.50;;;;;;5069963;28;20028;-85
2020/12/16 11:58:13;;;;;;;6.60;3.95;;;16.60;61.20;;;;;;5069943;28;20021;-85
2020/12/16 12:00:38;;;;;;;6.22;3.88;;;16.40;62.00;;;;;;5053223;28;20389;-83
2020/12/16 12:03:04;;;;;;;5.93;3.80;;;16.30;62.60;;;;;;5053829;28;20032;-83
2020/12/16 12:05:30;;;;;;;7.63;4.47;;;16.20;63.10;;;;;;5020390;28;20380;-85
2020/12/16 12:07:55;;;;;;;6.55;3.58;;;16.30;63.80;;;;;;5036906;28;20033;-86
2020/12/16 12:10:21;;;;;;;5.32;3.28;;;16.60;64.60;;;;;;5053243;28;20036;-85
2020/12/16 12:12:47;;;;;;;8.50;3.63;;;17.00;64.70;;;;;;5056296;28;20054;-86
2020/12/16 12:15:12;;;;;;;6.57;3.42;;;17.60;64.60;;;;;;5052575;28;20021;-86
2020/12/16 12:17:38;;;;;;;4.63;2.50;;;18.10;64.30;;;;;;5067258;28;20029;-85
2020/12/16 12:20:05;;;;;;;5.28;2.90;;;18.60;63.60;;;;;;5053925;28;20025;-85
2020/12/16 12:22:30;;;;;;;5.72;3.50;;;18.80;62.10;;;;;;5052613;28;20036;-85
2020/12/16 12:24:56;;;;;;;7.43;3.70;;;18.70;60.80;;;;;;5052362;28;20029;-85
2020/12/16 12:27:22;;;;;;;5.25;3.50;;;18.50;59.80;;;;;;5054230;28;20051;-85
2020/12/16 12:29:47;;;;;;;5.93;3.55;;;18.20;59.60;;;;;;5071848;28;20036;-84
2020/12/16 12:32:14;;;;;;;7.32;4.22;;;17.90;59.50;;;;;;5039409;28;20024;-85
2020/12/16 12:34:40;;;;;;;7.43;4.40;;;17.60;59.80;;;;;;5072925;28;20032;-84
2020/12/16 12:37:06;;;;;;;9.75;4.72;;;17.20;60.10;;;;;;5072546;28;20485;-84
2020/12/16 12:39:32;;;;;;;8.23;4.88;;;16.90;60.50;;;;;;5068318;28;20112;-83
2020/12/16 12:41:57;;;;;;;7.78;4.75;;;16.50;61.20;;;;;;5071365;28;20025;-83
2020/12/16 12:44:23;;;;;;;8.43;4.53;;;16.30;62.50;;;;;;5052476;28;20021;-84
2020/12/16 12:46:49;;;;;;;8.73;5.18;;;16.10;62.50;;;;;;5054063;28;20056;-83